ESSA/ARN METAR and TAF weather

Enter ICAO airport designator
Station Type Date Time Source
ESSA METAR 2021/05/11 00:20 UTC NOAA

ESSA 110020Z 14004KT CAVOK 09/05 Q1010 NOSIG


Station Type Date Time Source
ESSA Decoded METAR 2021/05/11 00:20 UTC NOAA

Stockholm / Arlanda, Sweden (ESSA) 59-39N 017-57E 61M
May 10, 2021 - 08:20 PM EDT / 2021.05.11 0020 UTC
Wind: from the SE (140 degrees) at 5 MPH (4 KT):0
Visibility: greater than 7 mile(s):0
Temperature: 48 F (9 C)
Dew Point: 41 F (5 C)
Relative Humidity: 75%
Pressure (altimeter): 29.83 in. Hg (1010 hPa)
ob: ESSA 110020Z 14004KT CAVOK 09/05 Q1010 NOSIG
cycle: 0

Station Type Date Time Source
ESSA TAF 2021/05/10 18:33 UTC NOAA

TAF ESSA 101730Z 1018/1118 18009KT CAVOK

Example: see airport list